createdAt,value
2024-05-09T00:00:35.235Z,15.66
2024-05-09T00:01:10.103Z,15.65
2024-05-09T00:01:40.943Z,15.63
2024-05-09T00:02:11.770Z,15.61
2024-05-09T00:02:42.511Z,15.61
2024-05-09T00:03:13.410Z,15.64
2024-05-09T00:03:45.718Z,15.63
2024-05-09T00:04:16.504Z,15.65
2024-05-09T00:04:47.304Z,15.63
2024-05-09T00:05:18.193Z,15.62
2024-05-09T00:05:49.032Z,15.63
2024-05-09T00:06:19.803Z,15.63
2024-05-09T00:06:50.514Z,15.65
2024-05-09T00:07:21.239Z,15.66
2024-05-09T00:07:52.064Z,15.67
2024-05-09T00:08:23.007Z,15.67
2024-05-09T00:08:53.841Z,15.68
2024-05-09T00:09:24.622Z,15.65
2024-05-09T00:09:55.362Z,15.62
2024-05-09T00:10:35.044Z,15.60
2024-05-09T00:11:08.496Z,15.61
2024-05-09T00:11:39.364Z,15.61
2024-05-09T00:12:10.297Z,15.64
2024-05-09T00:12:41.102Z,15.63
2024-05-09T00:13:11.826Z,15.65
2024-05-09T00:13:42.616Z,15.66
2024-05-09T00:14:13.398Z,15.64
2024-05-09T00:14:44.148Z,15.63
2024-05-09T00:15:14.901Z,15.61
2024-05-09T00:15:45.621Z,15.61
2024-05-09T00:16:16.349Z,15.63
2024-05-09T00:16:48.576Z,15.66
2024-05-09T00:17:19.444Z,15.64
2024-05-09T00:17:53.219Z,15.64
2024-05-09T00:18:24.247Z,15.63
2024-05-09T00:18:55.036Z,15.62
2024-05-09T00:19:26.471Z,15.63
2024-05-09T00:19:57.246Z,15.65
2024-05-09T00:20:36.219Z,15.64
2024-05-09T00:21:10.339Z,15.65
2024-05-09T00:21:43.716Z,15.63
2024-05-09T00:22:14.495Z,15.65
2024-05-09T00:22:45.293Z,15.67
2024-05-09T00:23:16.283Z,15.65
2024-05-09T00:23:47.109Z,15.65
2024-05-09T00:24:17.843Z,15.63
2024-05-09T00:24:48.567Z,15.60
2024-05-09T00:25:19.310Z,15.64
2024-05-09T00:25:50.147Z,15.64
2024-05-09T00:26:21.050Z,15.63
2024-05-09T00:26:51.807Z,15.61
2024-05-09T00:27:22.565Z,15.61
2024-05-09T00:27:53.276Z,15.62
2024-05-09T00:28:24.732Z,15.63
2024-05-09T00:28:55.578Z,15.62
2024-05-09T00:29:26.394Z,15.62
2024-05-09T00:29:57.203Z,15.64
2024-05-09T00:30:33.949Z,15.65
2024-05-09T00:31:07.043Z,15.64
2024-05-09T00:31:37.771Z,15.61
2024-05-09T00:32:08.620Z,15.61
2024-05-09T00:32:39.583Z,15.60
2024-05-09T00:33:11.492Z,15.60
2024-05-09T00:33:42.883Z,15.61
2024-05-09T00:34:13.951Z,15.60
2024-05-09T00:34:45.156Z,15.60
2024-05-09T00:35:15.987Z,15.58
2024-05-09T00:35:46.821Z,15.55
2024-05-09T00:36:17.553Z,15.59
2024-05-09T00:36:48.535Z,15.59
2024-05-09T00:37:19.465Z,15.58
2024-05-09T00:37:50.230Z,15.58
2024-05-09T00:38:21.194Z,15.57
2024-05-09T00:38:52.021Z,15.59
2024-05-09T00:39:22.746Z,15.59
2024-05-09T00:39:53.462Z,15.58
2024-05-09T00:40:34.755Z,15.58
2024-05-09T00:41:09.616Z,15.58
2024-05-09T00:41:40.474Z,15.60
2024-05-09T00:42:11.220Z,15.62
2024-05-09T00:42:41.933Z,15.61
2024-05-09T00:43:14.100Z,15.61
2024-05-09T00:43:45.733Z,15.56
2024-05-09T00:44:16.510Z,15.54
2024-05-09T00:44:47.309Z,15.58
2024-05-09T00:45:18.026Z,15.61
2024-05-09T00:45:48.762Z,15.60
2024-05-09T00:46:19.912Z,15.57
2024-05-09T00:46:53.551Z,15.55
2024-05-09T00:47:24.771Z,15.58
2024-05-09T00:47:58.615Z,15.56
2024-05-09T00:48:30.103Z,15.54
2024-05-09T00:49:01.168Z,15.59
2024-05-09T00:49:32.736Z,15.55
2024-05-09T00:50:05.537Z,15.56
2024-05-09T00:50:41.399Z,15.55
2024-05-09T00:51:12.871Z,15.57
2024-05-09T00:51:44.616Z,15.57
2024-05-09T00:52:15.663Z,15.55
2024-05-09T00:52:47.709Z,15.56
2024-05-09T00:53:18.851Z,15.56
2024-05-09T00:53:49.722Z,15.55
2024-05-09T00:54:22.086Z,15.56
2024-05-09T00:54:55.209Z,15.58
2024-05-09T00:55:29.929Z,15.52
2024-05-09T00:56:04.159Z,15.47
2024-05-09T00:56:35.398Z,15.47
2024-05-09T00:57:06.262Z,15.49
2024-05-09T00:57:38.656Z,15.48
2024-05-09T00:58:12.251Z,15.50
2024-05-09T00:58:43.046Z,15.53
2024-05-09T00:59:14.733Z,15.53
2024-05-09T00:59:46.500Z,15.49
2024-05-09T01:00:26.514Z,15.49
2024-05-09T01:01:05.220Z,15.50
2024-05-09T01:01:36.121Z,15.49
2024-05-09T01:02:09.248Z,15.51
2024-05-09T01:02:40.122Z,15.52
2024-05-09T01:03:13.038Z,15.52
2024-05-09T01:03:46.643Z,15.53
2024-05-09T01:04:18.881Z,15.53
2024-05-09T01:04:49.870Z,15.56
2024-05-09T01:05:20.749Z,15.57
2024-05-09T01:05:51.561Z,15.60
2024-05-09T01:06:22.404Z,15.58
2024-05-09T01:06:53.181Z,15.58
2024-05-09T01:07:24.389Z,15.58
2024-05-09T01:07:55.114Z,15.57
2024-05-09T01:08:26.303Z,15.58
2024-05-09T01:08:57.067Z,15.58
2024-05-09T01:09:27.788Z,15.60
2024-05-09T01:09:58.578Z,15.60
2024-05-09T01:10:34.172Z,15.60
2024-05-09T01:11:06.657Z,15.59
2024-05-09T01:11:39.212Z,15.55
2024-05-09T01:12:10.159Z,15.55
2024-05-09T01:12:40.998Z,15.56
2024-05-09T01:13:11.755Z,15.59
2024-05-09T01:13:43.699Z,15.56
2024-05-09T01:14:14.439Z,15.58
2024-05-09T01:14:45.184Z,15.57
2024-05-09T01:15:15.903Z,15.59
2024-05-09T01:15:48.925Z,15.59
2024-05-09T01:16:19.797Z,15.59
2024-05-09T01:16:50.584Z,15.55
2024-05-09T01:17:21.486Z,15.55
2024-05-09T01:17:54.274Z,15.49
2024-05-09T01:18:25.685Z,15.49
2024-05-09T01:18:57.854Z,15.49
2024-05-09T01:19:29.698Z,15.49
2024-05-09T01:20:00.605Z,15.49
2024-05-09T01:20:39.915Z,15.50
2024-05-09T01:21:14.067Z,15.44
2024-05-09T01:21:44.982Z,15.43
2024-05-09T01:22:15.697Z,15.42
2024-05-09T01:22:46.814Z,15.37
2024-05-09T01:23:17.589Z,15.36
2024-05-09T01:23:48.348Z,15.40
2024-05-09T01:24:19.350Z,15.43
2024-05-09T01:24:53.774Z,15.40
2024-05-09T01:25:24.503Z,15.37
2024-05-09T01:25:55.300Z,15.37
2024-05-09T01:26:26.117Z,15.35
2024-05-09T01:26:56.851Z,15.35
2024-05-09T01:27:29.662Z,15.33
2024-05-09T01:28:00.930Z,15.32
2024-05-09T01:28:31.649Z,15.34
2024-05-09T01:29:02.536Z,15.35
2024-05-09T01:29:33.372Z,15.35
2024-05-09T01:30:09.135Z,15.36
2024-05-09T01:30:40.271Z,15.38
2024-05-09T01:31:14.968Z,15.36
2024-05-09T01:31:46.705Z,15.34
2024-05-09T01:32:17.573Z,15.36
2024-05-09T01:32:48.520Z,15.37
2024-05-09T01:33:19.433Z,15.37
2024-05-09T01:33:50.448Z,15.38
2024-05-09T01:34:21.374Z,15.37
2024-05-09T01:34:52.254Z,15.37
2024-05-09T01:35:23.113Z,15.38
2024-05-09T01:35:53.873Z,15.38
2024-05-09T01:36:24.658Z,15.38
2024-05-09T01:36:55.364Z,15.38
2024-05-09T01:37:26.080Z,15.36
2024-05-09T01:37:56.841Z,15.33
2024-05-09T01:38:27.614Z,15.36
2024-05-09T01:38:58.364Z,15.35
2024-05-09T01:39:29.110Z,15.34
2024-05-09T01:39:59.886Z,15.38
2024-05-09T01:41:06.274Z,15.37
2024-05-09T01:41:37.087Z,15.39
2024-05-09T01:42:07.856Z,15.38
2024-05-09T01:42:41.576Z,15.38
2024-05-09T01:43:12.536Z,15.39
2024-05-09T01:43:43.317Z,15.40
2024-05-09T01:44:14.106Z,15.40
2024-05-09T01:44:45.722Z,15.39
2024-05-09T01:45:17.390Z,15.40
2024-05-09T01:45:48.109Z,15.38
2024-05-09T01:46:18.839Z,15.37
2024-05-09T01:46:49.591Z,15.35
2024-05-09T01:47:20.459Z,15.36
2024-05-09T01:47:51.641Z,15.36
2024-05-09T01:48:22.630Z,15.36
2024-05-09T01:48:53.594Z,15.37
2024-05-09T01:49:24.472Z,15.38
2024-05-09T01:49:55.240Z,15.40
2024-05-09T01:50:37.132Z,15.38
2024-05-09T01:51:11.663Z,15.38
2024-05-09T01:51:42.591Z,15.40
2024-05-09T01:52:13.319Z,15.39
2024-05-09T01:52:44.051Z,15.41
2024-05-09T01:53:15.408Z,15.41
2024-05-09T01:53:46.485Z,15.41
2024-05-09T01:54:17.235Z,15.40
2024-05-09T01:54:47.957Z,15.41
2024-05-09T01:55:18.673Z,15.43
2024-05-09T01:55:49.410Z,15.41
2024-05-09T01:56:20.226Z,15.39
2024-05-09T01:56:51.009Z,15.39
2024-05-09T01:57:21.732Z,15.38
2024-05-09T01:57:52.466Z,15.38
2024-05-09T01:58:23.559Z,15.41
2024-05-09T01:58:54.344Z,15.40
2024-05-09T01:59:25.297Z,15.40
2024-05-09T01:59:56.060Z,15.38
2024-05-09T02:00:37.087Z,15.40
2024-05-09T02:01:11.533Z,15.41
2024-05-09T02:01:56.128Z,15.42
2024-05-09T02:02:28.456Z,15.42
2024-05-09T02:02:59.353Z,15.41
2024-05-09T02:03:30.286Z,15.41
2024-05-09T02:04:01.374Z,15.40
2024-05-09T02:04:32.392Z,15.40
2024-05-09T02:05:03.584Z,15.41
2024-05-09T02:05:34.598Z,15.40
2024-05-09T02:06:05.775Z,15.43
2024-05-09T02:06:40.594Z,15.40
2024-05-09T02:07:11.323Z,15.40
2024-05-09T02:07:42.065Z,15.40
2024-05-09T02:08:17.572Z,15.40
2024-05-09T02:08:49.098Z,15.41
2024-05-09T02:09:19.828Z,15.41
2024-05-09T02:09:51.909Z,15.41
2024-05-09T02:10:26.629Z,15.42
2024-05-09T02:11:03.157Z,15.42
2024-05-09T02:11:42.316Z,15.43
2024-05-09T02:12:13.229Z,15.41
2024-05-09T02:12:44.034Z,15.43
2024-05-09T02:13:15.000Z,15.43
2024-05-09T02:13:45.796Z,15.42
2024-05-09T02:14:19.430Z,15.43
2024-05-09T02:14:50.807Z,15.42
2024-05-09T02:15:21.515Z,15.44
2024-05-09T02:15:52.479Z,15.44
2024-05-09T02:16:23.279Z,15.45
2024-05-09T02:16:54.057Z,15.43
2024-05-09T02:17:25.010Z,15.43
2024-05-09T02:17:56.067Z,15.42
2024-05-09T02:18:26.922Z,15.42
2024-05-09T02:18:57.905Z,15.41
2024-05-09T02:19:28.759Z,15.44
2024-05-09T02:19:59.555Z,15.45
2024-05-09T02:20:35.991Z,15.45
2024-05-09T02:21:08.204Z,15.45
2024-05-09T02:21:39.305Z,15.46
2024-05-09T02:22:10.119Z,15.45
2024-05-09T02:22:40.894Z,15.44
2024-05-09T02:23:12.867Z,15.45
2024-05-09T02:23:43.758Z,15.45
2024-05-09T02:24:14.548Z,15.47
2024-05-09T02:24:45.261Z,15.45
2024-05-09T02:25:15.987Z,15.46
2024-05-09T02:25:46.955Z,15.46
2024-05-09T02:26:17.821Z,15.46
2024-05-09T02:26:48.544Z,15.47
2024-05-09T02:27:19.275Z,15.47
2024-05-09T02:27:50.072Z,15.46
2024-05-09T02:28:20.827Z,15.47
2024-05-09T02:28:51.566Z,15.46
2024-05-09T02:29:22.406Z,15.46
2024-05-09T02:29:53.165Z,15.47
2024-05-09T02:30:31.037Z,15.46
2024-05-09T02:31:12.474Z,15.45
2024-05-09T02:31:43.767Z,15.46
2024-05-09T02:32:14.601Z,15.44
2024-05-09T02:32:45.671Z,15.47
2024-05-09T02:33:16.673Z,15.47
2024-05-09T02:33:47.836Z,15.47
2024-05-09T02:34:18.833Z,15.47
2024-05-09T02:34:49.662Z,15.46
2024-05-09T02:35:20.491Z,15.48
2024-05-09T02:35:51.225Z,15.48
2024-05-09T02:36:21.947Z,15.49
2024-05-09T02:36:54.990Z,15.48
2024-05-09T02:37:25.709Z,15.48
2024-05-09T02:37:56.649Z,15.48
2024-05-09T02:38:27.488Z,15.48
2024-05-09T02:38:58.260Z,15.49
2024-05-09T02:39:28.991Z,15.49
2024-05-09T02:39:59.723Z,15.48
2024-05-09T02:41:03.556Z,15.46
2024-05-09T02:41:34.359Z,15.45
2024-05-09T02:42:05.153Z,15.42
2024-05-09T02:42:35.886Z,15.40
2024-05-09T02:43:07.999Z,15.37
2024-05-09T02:43:39.266Z,15.35
2024-05-09T02:44:10.054Z,15.35
2024-05-09T02:44:41.090Z,15.34
2024-05-09T02:45:14.513Z,15.31
2024-05-09T02:45:45.281Z,15.31
2024-05-09T02:46:16.003Z,15.29
2024-05-09T02:46:46.715Z,15.26
2024-05-09T02:47:17.611Z,15.26
2024-05-09T02:47:48.859Z,15.24
2024-05-09T02:48:19.953Z,15.21
2024-05-09T02:48:50.865Z,15.17
2024-05-09T02:49:21.975Z,15.19
2024-05-09T02:49:53.575Z,15.21
2024-05-09T02:50:33.110Z,15.19
2024-05-09T02:51:08.401Z,15.19
2024-05-09T02:51:39.217Z,15.16
2024-05-09T02:52:09.966Z,15.17
2024-05-09T02:52:40.684Z,15.15
2024-05-09T02:53:12.374Z,15.16
2024-05-09T02:53:43.255Z,15.15
2024-05-09T02:54:13.992Z,15.12
2024-05-09T02:54:44.783Z,15.10
2024-05-09T02:55:15.526Z,15.09
2024-05-09T02:55:46.283Z,15.12
2024-05-09T02:56:17.095Z,15.11
2024-05-09T02:56:47.819Z,15.13
2024-05-09T02:57:18.559Z,15.10
2024-05-09T02:57:49.293Z,15.09
2024-05-09T02:58:20.014Z,15.11
2024-05-09T02:58:50.783Z,15.09
2024-05-09T02:59:21.938Z,15.06
2024-05-09T02:59:52.715Z,15.02
2024-05-09T03:00:29.801Z,15.03
2024-05-09T03:01:08.173Z,15.04
2024-05-09T03:01:39.015Z,15.05
2024-05-09T03:02:09.858Z,15.04
2024-05-09T03:02:43.307Z,15.04
2024-05-09T03:03:15.657Z,15.05
2024-05-09T03:03:49.187Z,15.05
2024-05-09T03:04:20.039Z,15.05
2024-05-09T03:04:50.904Z,15.03
2024-05-09T03:05:21.773Z,15.04
2024-05-09T03:05:52.537Z,15.06
2024-05-09T03:06:23.274Z,15.06
2024-05-09T03:06:53.986Z,15.03
2024-05-09T03:07:24.709Z,15.02
2024-05-09T03:07:55.552Z,14.97
2024-05-09T03:08:26.948Z,14.92
2024-05-09T03:08:59.822Z,14.93
2024-05-09T03:09:30.553Z,14.94
2024-05-09T03:10:01.347Z,14.91
2024-05-09T03:10:35.804Z,14.89
2024-05-09T03:11:08.703Z,14.91
2024-05-09T03:11:39.579Z,14.89
2024-05-09T03:12:10.552Z,14.92
2024-05-09T03:12:41.388Z,14.92
2024-05-09T03:13:15.294Z,14.90
2024-05-09T03:13:47.006Z,14.93
2024-05-09T03:14:18.235Z,14.92
2024-05-09T03:14:49.555Z,14.89
2024-05-09T03:15:21.512Z,14.89
2024-05-09T03:15:52.251Z,14.88
2024-05-09T03:16:22.976Z,14.90
2024-05-09T03:16:53.729Z,14.87
2024-05-09T03:17:24.819Z,14.83
2024-05-09T03:17:55.963Z,14.83
2024-05-09T03:18:26.834Z,14.79
2024-05-09T03:18:57.754Z,14.80
2024-05-09T03:19:28.612Z,14.80
2024-05-09T03:20:00.732Z,14.81
2024-05-09T03:20:34.726Z,14.80
2024-05-09T03:21:07.360Z,14.79
2024-05-09T03:21:41.492Z,14.80
2024-05-09T03:22:12.212Z,14.80
2024-05-09T03:22:42.920Z,14.79
2024-05-09T03:23:13.765Z,14.77
2024-05-09T03:23:44.755Z,14.74
2024-05-09T03:24:15.523Z,14.74
2024-05-09T03:24:46.278Z,14.75
2024-05-09T03:25:17.030Z,14.79
2024-05-09T03:25:47.786Z,14.78
2024-05-09T03:26:18.605Z,14.77
2024-05-09T03:26:49.406Z,14.80
2024-05-09T03:27:20.145Z,14.77
2024-05-09T03:27:52.581Z,14.70
2024-05-09T03:28:23.303Z,14.70
2024-05-09T03:28:54.108Z,14.71
2024-05-09T03:29:25.062Z,14.75
2024-05-09T03:29:55.903Z,14.76
2024-05-09T03:30:36.032Z,14.77
2024-05-09T03:31:12.124Z,14.80
2024-05-09T03:31:42.912Z,14.79
2024-05-09T03:32:13.737Z,14.80
2024-05-09T03:32:44.783Z,14.78
2024-05-09T03:33:16.296Z,14.79
2024-05-09T03:33:47.280Z,14.81
2024-05-09T03:34:18.165Z,14.82
2024-05-09T03:34:48.954Z,14.83
2024-05-09T03:35:19.693Z,14.80
2024-05-09T03:35:50.501Z,14.79
2024-05-09T03:36:21.303Z,14.79
2024-05-09T03:36:52.052Z,14.79
2024-05-09T03:37:22.757Z,14.80
2024-05-09T03:37:53.508Z,14.82
2024-05-09T03:38:24.507Z,14.83
2024-05-09T03:38:55.241Z,14.84
2024-05-09T03:39:25.969Z,14.84
2024-05-09T03:39:56.692Z,14.85
2024-05-09T03:40:30.827Z,14.84
2024-05-09T03:41:02.135Z,14.85
2024-05-09T03:41:33.446Z,14.86
2024-05-09T03:42:04.276Z,14.86
2024-05-09T03:42:39.646Z,14.87
2024-05-09T03:43:10.376Z,14.85
2024-05-09T03:43:42.863Z,14.85
2024-05-09T03:44:13.662Z,14.87
2024-05-09T03:44:44.404Z,14.87
2024-05-09T03:45:15.697Z,14.88
2024-05-09T03:45:47.739Z,14.88
2024-05-09T03:46:18.452Z,14.87
2024-05-09T03:46:49.243Z,14.87
2024-05-09T03:47:20.270Z,14.89
2024-05-09T03:47:51.486Z,14.90
2024-05-09T03:48:22.600Z,14.91
2024-05-09T03:48:53.481Z,14.92
2024-05-09T03:49:24.747Z,14.93
2024-05-09T03:49:55.618Z,14.93
2024-05-09T03:50:33.588Z,14.93
2024-05-09T03:51:06.619Z,14.94
2024-05-09T03:51:37.426Z,14.93
2024-05-09T03:52:10.649Z,14.94
2024-05-09T03:52:41.392Z,14.97
2024-05-09T03:53:13.411Z,14.97
2024-05-09T03:53:44.390Z,14.97
2024-05-09T03:54:15.130Z,14.96
2024-05-09T03:54:46.387Z,14.98
2024-05-09T03:55:17.100Z,14.99
2024-05-09T03:55:48.270Z,15.00
2024-05-09T03:56:19.195Z,15.00
2024-05-09T03:56:49.968Z,15.01
2024-05-09T03:57:20.697Z,15.01
2024-05-09T03:57:51.441Z,15.01
2024-05-09T03:58:22.154Z,15.00
2024-05-09T03:58:53.584Z,15.01
2024-05-09T03:59:24.679Z,15.01
2024-05-09T03:59:55.451Z,15.01
2024-05-09T04:00:34.720Z,15.04
2024-05-09T04:01:09.172Z,15.04
2024-05-09T04:01:40.017Z,15.05
2024-05-09T04:02:10.921Z,15.05
2024-05-09T04:02:42.560Z,15.09
2024-05-09T04:03:13.728Z,15.08
2024-05-09T04:03:44.889Z,15.06
2024-05-09T04:04:15.816Z,15.05
2024-05-09T04:04:46.664Z,15.08
2024-05-09T04:05:17.505Z,15.09
2024-05-09T04:05:48.301Z,15.10
2024-05-09T04:06:22.961Z,15.10
2024-05-09T04:06:53.676Z,15.11
2024-05-09T04:07:24.416Z,15.10
2024-05-09T04:07:55.166Z,15.10
2024-05-09T04:08:25.912Z,15.10
2024-05-09T04:08:56.694Z,15.11
2024-05-09T04:09:27.567Z,15.11
2024-05-09T04:09:58.279Z,15.10
2024-05-09T04:10:33.339Z,15.13
2024-05-09T04:11:05.984Z,15.13
2024-05-09T04:11:36.818Z,15.13
2024-05-09T04:12:07.744Z,15.16
2024-05-09T04:12:38.543Z,15.15
2024-05-09T04:13:09.752Z,15.15
2024-05-09T04:13:40.472Z,15.13
2024-05-09T04:14:11.268Z,15.14
2024-05-09T04:14:42.038Z,15.13
2024-05-09T04:15:13.606Z,15.12
2024-05-09T04:15:44.445Z,15.17
2024-05-09T04:16:15.163Z,15.18
2024-05-09T04:16:45.916Z,15.19
2024-05-09T04:17:16.711Z,15.20
2024-05-09T04:17:50.217Z,15.19
2024-05-09T04:18:21.147Z,15.20
2024-05-09T04:18:52.075Z,15.24
2024-05-09T04:19:22.993Z,15.25
2024-05-09T04:19:54.024Z,15.24
2024-05-09T04:20:35.571Z,15.26
2024-05-09T04:21:09.744Z,15.24
2024-05-09T04:21:40.611Z,15.25
2024-05-09T04:22:11.349Z,15.24
2024-05-09T04:22:42.262Z,15.24
2024-05-09T04:23:13.874Z,15.24
2024-05-09T04:23:45.117Z,15.26
2024-05-09T04:24:15.910Z,15.27
2024-05-09T04:24:47.453Z,15.29
2024-05-09T04:25:18.184Z,15.31
2024-05-09T04:25:48.966Z,15.32
2024-05-09T04:26:19.797Z,15.34
2024-05-09T04:26:50.514Z,15.32
2024-05-09T04:27:21.402Z,15.33
2024-05-09T04:27:54.540Z,15.31
2024-05-09T04:28:25.341Z,15.32
2024-05-09T04:28:56.079Z,15.33
2024-05-09T04:29:26.945Z,15.33
2024-05-09T04:29:57.765Z,15.32
2024-05-09T04:30:35.017Z,15.32
2024-05-09T04:31:09.760Z,15.30
2024-05-09T04:31:40.491Z,15.32
2024-05-09T04:32:11.291Z,15.34
2024-05-09T04:32:42.716Z,15.35
2024-05-09T04:33:14.682Z,15.35
2024-05-09T04:33:46.131Z,15.37
2024-05-09T04:34:17.158Z,15.39
2024-05-09T04:34:48.071Z,15.39
2024-05-09T04:35:21.211Z,15.40
2024-05-09T04:35:52.134Z,15.41
2024-05-09T04:36:22.850Z,15.41
2024-05-09T04:36:53.577Z,15.40
2024-05-09T04:37:25.175Z,15.43
2024-05-09T04:37:55.900Z,15.41
2024-05-09T04:38:28.516Z,15.39
2024-05-09T04:38:59.243Z,15.38
2024-05-09T04:39:29.966Z,15.38
2024-05-09T04:40:00.682Z,15.36
2024-05-09T04:40:35.068Z,15.36
2024-05-09T04:41:07.604Z,15.39
2024-05-09T04:41:38.356Z,15.38
2024-05-09T04:42:09.094Z,15.39
2024-05-09T04:42:40.445Z,15.39
2024-05-09T04:43:15.931Z,15.39
2024-05-09T04:43:49.650Z,15.40
2024-05-09T04:44:20.445Z,15.42
2024-05-09T04:44:52.046Z,15.41
2024-05-09T04:45:23.724Z,15.38
2024-05-09T04:45:54.449Z,15.34
2024-05-09T04:46:25.166Z,15.37
2024-05-09T04:46:55.905Z,15.37
2024-05-09T04:47:26.805Z,15.36
2024-05-09T04:47:58.229Z,15.38
2024-05-09T04:48:29.269Z,15.36
2024-05-09T04:49:00.165Z,15.32
2024-05-09T04:49:31.139Z,15.34
2024-05-09T04:50:05.617Z,15.35
2024-05-09T04:50:38.889Z,15.39
2024-05-09T04:51:10.621Z,15.38
2024-05-09T04:51:41.529Z,15.39
2024-05-09T04:52:12.352Z,15.40
2024-05-09T04:52:43.086Z,15.42
2024-05-09T04:53:15.275Z,15.42
2024-05-09T04:53:46.207Z,15.39
2024-05-09T04:54:26.186Z,15.39
2024-05-09T04:55:04.998Z,15.44
2024-05-09T04:55:35.710Z,15.46
2024-05-09T04:56:07.609Z,15.42
2024-05-09T04:56:38.432Z,15.45
2024-05-09T04:57:09.185Z,15.44
2024-05-09T04:57:39.891Z,15.47
2024-05-09T04:58:10.809Z,15.48
2024-05-09T04:58:41.510Z,15.50
2024-05-09T04:59:12.350Z,15.48
2024-05-09T04:59:43.130Z,15.50
2024-05-09T05:00:15.036Z,15.50
2024-05-09T05:00:52.474Z,15.52
2024-05-09T05:01:23.260Z,15.54
2024-05-09T05:01:54.162Z,15.52
2024-05-09T05:02:25.182Z,15.50
2024-05-09T05:02:56.070Z,15.51
2024-05-09T05:03:27.092Z,15.52
2024-05-09T05:03:58.117Z,15.55
2024-05-09T05:04:28.983Z,15.54
2024-05-09T05:04:59.853Z,15.55
2024-05-09T05:05:30.661Z,15.57
2024-05-09T05:06:04.460Z,15.55
2024-05-09T05:06:35.202Z,15.57
2024-05-09T05:07:05.933Z,15.57
2024-05-09T05:07:36.694Z,15.54
2024-05-09T05:08:11.267Z,15.55
2024-05-09T05:08:50.592Z,15.56
2024-05-09T05:09:21.324Z,15.61
2024-05-09T05:09:52.058Z,15.58
2024-05-09T05:10:32.902Z,15.59
2024-05-09T05:11:06.425Z,15.60
2024-05-09T05:11:37.274Z,15.60
2024-05-09T05:12:28.140Z,15.57
2024-05-09T05:13:18.712Z,15.59
2024-05-09T05:13:50.188Z,15.59
2024-05-09T05:14:20.970Z,15.63
2024-05-09T05:14:51.694Z,15.64
2024-05-09T05:15:22.420Z,15.68
2024-05-09T05:15:54.797Z,15.83
2024-05-09T05:16:25.518Z,15.76
2024-05-09T05:16:56.477Z,15.74
2024-05-09T05:17:27.392Z,15.75
2024-05-09T05:17:58.367Z,15.74
2024-05-09T05:18:29.603Z,15.73
2024-05-09T05:19:00.514Z,15.69
2024-05-09T05:19:31.497Z,15.71
2024-05-09T05:20:02.744Z,15.73
2024-05-09T05:20:34.387Z,15.75
2024-05-09T05:21:05.339Z,15.77
2024-05-09T05:21:36.110Z,15.74
2024-05-09T05:22:09.432Z,15.74
2024-05-09T05:22:42.057Z,15.74
2024-05-09T05:23:19.080Z,15.76
2024-05-09T05:23:49.953Z,15.73
2024-05-09T05:24:20.808Z,15.76
2024-05-09T05:24:51.545Z,15.74
2024-05-09T05:25:22.291Z,15.71
2024-05-09T05:25:54.118Z,15.71
2024-05-09T05:26:25.209Z,15.70
2024-05-09T05:26:55.986Z,15.69
2024-05-09T05:27:26.712Z,15.72
2024-05-09T05:27:57.432Z,15.71
2024-05-09T05:28:28.150Z,15.69
2024-05-09T05:28:58.942Z,15.68
2024-05-09T05:29:32.242Z,15.67
2024-05-09T05:30:05.881Z,15.69
2024-05-09T05:30:40.604Z,15.66
2024-05-09T05:31:11.540Z,15.70
2024-05-09T05:31:42.267Z,15.73
2024-05-09T05:32:13.232Z,15.77
2024-05-09T05:32:44.213Z,15.77
2024-05-09T05:33:17.140Z,15.78
2024-05-09T05:33:48.071Z,15.80
2024-05-09T05:34:18.828Z,15.84
2024-05-09T05:34:49.546Z,15.85
2024-05-09T05:35:20.348Z,15.86
2024-05-09T05:35:51.196Z,15.89
2024-05-09T05:36:22.400Z,15.91
2024-05-09T05:36:53.151Z,15.89
2024-05-09T05:37:23.885Z,15.87
2024-05-09T05:37:54.693Z,15.89
2024-05-09T05:38:28.128Z,15.92
2024-05-09T05:38:59.377Z,15.94
2024-05-09T05:39:30.085Z,15.95
2024-05-09T05:40:00.912Z,15.97
2024-05-09T05:40:36.117Z,15.96
2024-05-09T05:41:09.230Z,15.98
2024-05-09T05:41:39.991Z,15.99
2024-05-09T05:42:10.903Z,16.01
2024-05-09T05:42:41.853Z,16.02
2024-05-09T05:43:17.244Z,16.03
2024-05-09T05:43:48.054Z,16.03
2024-05-09T05:44:18.845Z,16.06
2024-05-09T05:44:49.632Z,16.09
2024-05-09T05:45:20.366Z,16.11
2024-05-09T05:45:51.072Z,16.10
2024-05-09T05:46:21.847Z,16.08
2024-05-09T05:46:52.605Z,16.11
2024-05-09T05:47:23.656Z,16.12
2024-05-09T05:47:54.860Z,16.13
2024-05-09T05:48:25.918Z,16.13
2024-05-09T05:48:56.870Z,16.14
2024-05-09T05:49:27.792Z,16.16
2024-05-09T05:49:58.638Z,16.17
2024-05-09T05:50:35.491Z,16.21
2024-05-09T05:51:08.314Z,16.22
2024-05-09T05:51:39.055Z,16.23
2024-05-09T05:52:10.068Z,16.25
2024-05-09T05:52:40.809Z,16.25
2024-05-09T05:53:12.038Z,16.27
2024-05-09T05:53:43.639Z,16.28
2024-05-09T05:54:14.407Z,16.28
2024-05-09T05:54:47.424Z,16.29
2024-05-09T05:55:18.149Z,16.29
2024-05-09T05:55:48.915Z,16.29
2024-05-09T05:56:19.671Z,16.29
2024-05-09T05:56:50.509Z,16.29
2024-05-09T05:57:21.212Z,16.30
2024-05-09T05:57:51.987Z,16.31
2024-05-09T05:58:22.701Z,16.29
2024-05-09T05:58:53.450Z,16.32
2024-05-09T05:59:24.242Z,16.31
2024-05-09T05:59:54.977Z,16.34
2024-05-09T06:00:30.307Z,16.34
2024-05-09T06:01:08.236Z,16.37
2024-05-09T06:01:39.068Z,16.32
2024-05-09T06:02:10.244Z,16.33
2024-05-09T06:02:41.302Z,16.34
2024-05-09T06:03:13.148Z,16.37
2024-05-09T06:03:44.693Z,16.34
2024-05-09T06:04:15.578Z,16.36
2024-05-09T06:04:46.358Z,16.36
2024-05-09T06:05:17.234Z,16.38
2024-05-09T06:05:48.072Z,16.39
2024-05-09T06:06:18.830Z,16.37
2024-05-09T06:06:49.583Z,16.38
2024-05-09T06:07:20.312Z,16.38
2024-05-09T06:07:51.061Z,16.42
2024-05-09T06:08:21.964Z,16.43
2024-05-09T06:08:53.700Z,16.40
2024-05-09T06:09:24.417Z,16.44
2024-05-09T06:09:55.211Z,16.47
2024-05-09T06:10:30.599Z,16.48
2024-05-09T06:11:08.545Z,16.49
2024-05-09T06:11:42.072Z,16.47
2024-05-09T06:12:13.020Z,16.49
2024-05-09T06:12:43.844Z,16.46
2024-05-09T06:13:14.694Z,16.47
2024-05-09T06:13:45.533Z,16.48
2024-05-09T06:14:16.296Z,16.51
2024-05-09T06:14:47.018Z,16.47
2024-05-09T06:15:17.739Z,16.47
2024-05-09T06:15:48.492Z,16.49
2024-05-09T06:16:21.851Z,16.46
2024-05-09T06:16:54.704Z,16.52
2024-05-09T06:17:26.859Z,16.53
2024-05-09T06:17:57.933Z,16.50
2024-05-09T06:18:28.981Z,16.51
2024-05-09T06:18:59.951Z,16.50
2024-05-09T06:19:30.974Z,16.52
2024-05-09T06:20:01.950Z,16.55
2024-05-09T06:20:36.367Z,16.53
2024-05-09T06:21:08.885Z,16.56
2024-05-09T06:21:39.632Z,16.58
2024-05-09T06:22:10.352Z,16.58
2024-05-09T06:22:41.091Z,16.58
2024-05-09T06:23:13.271Z,16.56
2024-05-09T06:23:48.473Z,16.59
2024-05-09T06:24:19.393Z,16.61
2024-05-09T06:24:50.124Z,16.60
2024-05-09T06:25:20.851Z,16.61
2024-05-09T06:25:51.588Z,16.63
2024-05-09T06:26:22.405Z,16.66
2024-05-09T06:26:53.197Z,16.66
2024-05-09T06:27:23.924Z,16.69
2024-05-09T06:27:54.678Z,16.70
2024-05-09T06:28:25.399Z,16.71
2024-05-09T06:28:56.449Z,16.73
2024-05-09T06:29:27.244Z,16.73
2024-05-09T06:29:57.986Z,16.73
2024-05-09T06:30:35.216Z,16.73
2024-05-09T06:31:10.076Z,16.67
2024-05-09T06:31:41.705Z,16.65
2024-05-09T06:32:12.472Z,16.67
2024-05-09T06:32:43.416Z,16.57
2024-05-09T06:33:16.102Z,16.58
2024-05-09T06:33:47.757Z,16.58
2024-05-09T06:34:18.787Z,16.59
2024-05-09T06:34:49.765Z,16.53
2024-05-09T06:35:20.550Z,16.51
2024-05-09T06:35:53.746Z,16.49
2024-05-09T06:36:24.467Z,16.51
2024-05-09T06:36:55.174Z,16.48
2024-05-09T06:37:25.887Z,16.52
2024-05-09T06:37:56.646Z,16.47
2024-05-09T06:38:27.867Z,16.48
2024-05-09T06:38:58.671Z,16.50
2024-05-09T06:39:29.403Z,16.53
2024-05-09T06:40:00.156Z,16.54
2024-05-09T06:40:36.966Z,16.51
2024-05-09T06:41:10.037Z,16.55
2024-05-09T06:41:40.799Z,16.56
2024-05-09T06:42:11.539Z,16.58
2024-05-09T06:42:42.284Z,16.54
2024-05-09T06:43:14.228Z,16.53
2024-05-09T06:43:45.443Z,16.55
2024-05-09T06:44:16.295Z,16.57
2024-05-09T06:44:47.264Z,16.59
2024-05-09T06:45:18.002Z,16.57
2024-05-09T06:45:51.642Z,16.57
2024-05-09T06:46:22.354Z,16.57
2024-05-09T06:46:54.611Z,16.52
2024-05-09T06:47:27.274Z,16.53
2024-05-09T06:47:58.226Z,16.56
2024-05-09T06:48:29.168Z,16.58
2024-05-09T06:49:07.074Z,16.59
2024-05-09T06:49:38.015Z,16.62
2024-05-09T06:50:19.560Z,16.62